createdAt,value
2018-09-26T00:01:46.230Z,2.80
2018-09-26T00:04:18.910Z,2.70
2018-09-26T00:06:46.983Z,3.00
2018-09-26T00:09:15.083Z,2.50
2018-09-26T00:11:43.157Z,3.40
2018-09-26T00:14:11.227Z,2.97
2018-09-26T00:16:39.668Z,2.73
2018-09-26T00:19:07.740Z,3.10
2018-09-26T00:21:35.802Z,2.57
2018-09-26T00:24:03.940Z,3.43
2018-09-26T00:26:32.005Z,2.83
2018-09-26T00:29:00.065Z,3.53
2018-09-26T00:31:28.155Z,2.87
2018-09-26T00:33:56.248Z,3.17
2018-09-26T00:36:24.321Z,2.80
2018-09-26T00:38:52.507Z,2.80
2018-09-26T00:41:20.593Z,2.77
2018-09-26T00:43:49.058Z,2.63
2018-09-26T00:46:17.172Z,2.80
2018-09-26T00:48:45.256Z,3.17
2018-09-26T00:51:13.326Z,3.00
2018-09-26T00:53:41.417Z,3.00
2018-09-26T00:56:09.477Z,2.90
2018-09-26T00:58:37.560Z,3.37
2018-09-26T01:01:05.645Z,4.43
2018-09-26T01:03:33.717Z,3.20
2018-09-26T01:06:01.800Z,2.90
2018-09-26T01:08:29.863Z,2.97
2018-09-26T01:10:57.912Z,2.70
2018-09-26T01:13:26.007Z,2.90
2018-09-26T01:15:54.089Z,2.73
2018-09-26T01:18:22.151Z,2.60
2018-09-26T01:20:50.836Z,2.70
2018-09-26T01:23:18.899Z,3.30
2018-09-26T01:25:46.955Z,3.17
2018-09-26T01:28:14.999Z,3.13
2018-09-26T01:30:43.064Z,3.10
2018-09-26T01:33:13.756Z,3.23
2018-09-26T01:35:44.045Z,2.77
2018-09-26T01:38:12.104Z,2.80
2018-09-26T01:40:40.171Z,2.60
2018-09-26T01:43:08.294Z,3.03
2018-09-26T01:45:36.365Z,2.47
2018-09-26T01:48:04.416Z,2.97
2018-09-26T01:50:32.503Z,3.30
2018-09-26T01:53:00.577Z,3.37
2018-09-26T01:55:28.676Z,2.70
2018-09-26T01:57:56.759Z,2.93
2018-09-26T02:00:24.844Z,2.87
2018-09-26T02:02:52.936Z,2.57
2018-09-26T02:05:21.037Z,2.60
2018-09-26T02:07:49.112Z,2.60
2018-09-26T02:10:17.177Z,2.90
2018-09-26T02:12:45.263Z,3.03
2018-09-26T02:15:13.356Z,3.00
2018-09-26T02:17:41.407Z,2.70
2018-09-26T02:20:09.480Z,2.70
2018-09-26T02:22:37.544Z,3.13
2018-09-26T02:25:05.624Z,3.20
2018-09-26T02:27:33.716Z,2.33
2018-09-26T02:30:01.802Z,2.20
2018-09-26T02:32:29.876Z,2.13
2018-09-26T02:34:57.964Z,2.73
2018-09-26T02:37:26.069Z,2.40
2018-09-26T02:39:54.172Z,2.40
2018-09-26T02:42:22.248Z,3.10
2018-09-26T02:44:50.353Z,2.97
2018-09-26T02:47:18.426Z,2.70
2018-09-26T02:49:46.505Z,2.43
2018-09-26T02:52:14.614Z,2.43
2018-09-26T02:54:42.719Z,2.43
2018-09-26T02:57:10.798Z,2.30
2018-09-26T02:59:38.861Z,2.40
2018-09-26T03:02:06.945Z,2.30
2018-09-26T03:04:35.018Z,2.10
2018-09-26T03:07:03.097Z,2.40
2018-09-26T03:09:31.173Z,2.13
2018-09-26T03:11:59.257Z,2.33
2018-09-26T03:14:27.328Z,2.13
2018-09-26T03:16:55.435Z,2.20
2018-09-26T03:19:23.517Z,2.20
2018-09-26T03:21:51.583Z,1.63
2018-09-26T03:24:19.661Z,2.27
2018-09-26T03:26:47.744Z,2.50
2018-09-26T03:29:15.812Z,2.40
2018-09-26T03:31:43.868Z,2.63
2018-09-26T03:34:11.929Z,3.10
2018-09-26T03:36:39.992Z,2.13
2018-09-26T03:39:08.461Z,2.13
2018-09-26T03:41:36.529Z,2.03
2018-09-26T03:44:04.631Z,2.40
2018-09-26T03:46:32.712Z,2.20
2018-09-26T03:49:00.782Z,2.77
2018-09-26T03:51:28.875Z,2.20
2018-09-26T03:53:56.964Z,2.90
2018-09-26T03:56:25.065Z,2.60
2018-09-26T03:58:53.144Z,3.10
2018-09-26T04:01:21.251Z,2.40
2018-09-26T04:03:49.345Z,2.80
2018-09-26T04:06:17.477Z,2.40
2018-09-26T04:08:45.558Z,3.20
2018-09-26T04:11:13.640Z,2.10
2018-09-26T04:13:41.720Z,2.83
2018-09-26T04:16:09.809Z,2.17
2018-09-26T04:18:37.885Z,2.07
2018-09-26T04:21:25.419Z,2.80
2018-09-26T04:24:01.020Z,4.90
2018-09-26T04:26:29.270Z,3.03
2018-09-26T04:28:57.200Z,2.73
2018-09-26T04:31:25.281Z,2.53
2018-09-26T04:33:53.422Z,2.80
2018-09-26T04:36:21.464Z,2.13
2018-09-26T04:38:49.721Z,2.83
2018-09-26T04:41:17.701Z,2.60
2018-09-26T04:43:45.988Z,2.73
2018-09-26T04:46:14.107Z,2.60
2018-09-26T04:48:42.187Z,2.97
2018-09-26T04:51:10.264Z,2.50
2018-09-26T04:53:38.329Z,2.10
2018-09-26T04:56:06.496Z,2.67
2018-09-26T04:58:34.567Z,2.40
2018-09-26T05:01:02.629Z,2.53
2018-09-26T05:03:30.703Z,2.73
2018-09-26T05:05:58.768Z,2.20
2018-09-26T05:08:26.908Z,2.63
2018-09-26T05:10:54.920Z,2.27
2018-09-26T05:13:23.034Z,2.23
2018-09-26T05:15:51.091Z,2.53
2018-09-26T05:18:19.272Z,3.27
2018-09-26T05:20:47.340Z,3.23
2018-09-26T05:23:15.498Z,2.60
2018-09-26T05:25:43.523Z,3.30
2018-09-26T05:28:11.634Z,3.00
2018-09-26T05:30:39.706Z,3.03
2018-09-26T05:33:07.896Z,3.27
2018-09-26T05:35:36.002Z,3.20
2018-09-26T05:38:04.100Z,2.60
2018-09-26T05:40:32.212Z,3.33
2018-09-26T05:43:00.409Z,2.87
2018-09-26T05:45:28.534Z,3.10
2018-09-26T05:47:56.625Z,3.50
2018-09-26T05:50:24.748Z,3.10
2018-09-26T05:52:52.807Z,3.23
2018-09-26T05:55:20.873Z,3.40
2018-09-26T05:57:48.976Z,2.87
2018-09-26T06:00:17.050Z,3.57
2018-09-26T06:02:45.125Z,3.53
2018-09-26T06:05:13.193Z,2.87
2018-09-26T06:07:41.289Z,3.00
2018-09-26T06:10:09.384Z,3.30
2018-09-26T06:12:37.545Z,3.10
2018-09-26T06:15:05.971Z,6.17
2018-09-26T06:17:34.069Z,3.17
2018-09-26T06:20:02.230Z,2.97
2018-09-26T06:22:30.354Z,3.23
2018-09-26T06:24:58.468Z,3.27
2018-09-26T06:27:26.540Z,4.90
2018-09-26T06:29:54.611Z,3.30
2018-09-26T06:32:22.792Z,3.53
2018-09-26T06:34:50.909Z,3.10
2018-09-26T06:37:18.965Z,3.00
2018-09-26T06:39:47.046Z,3.43
2018-09-26T06:42:15.132Z,3.60
2018-09-26T06:44:43.240Z,2.90
2018-09-26T06:47:11.316Z,3.13
2018-09-26T06:49:40.036Z,3.10
2018-09-26T06:52:08.176Z,3.80
2018-09-26T06:54:36.244Z,2.93
2018-09-26T06:57:04.616Z,3.43
2018-09-26T06:59:32.680Z,3.00
2018-09-26T07:02:01.023Z,3.00
2018-09-26T07:04:31.704Z,2.60
2018-09-26T07:07:01.969Z,2.80
2018-09-26T07:09:30.052Z,3.40
2018-09-26T07:11:58.158Z,3.00
2018-09-26T07:14:26.239Z,3.23
2018-09-26T07:16:54.421Z,2.83
2018-09-26T07:19:22.495Z,2.70
2018-09-26T07:21:50.580Z,2.90
2018-09-26T07:24:18.712Z,3.30
2018-09-26T07:26:46.792Z,3.43
2018-09-26T07:29:14.933Z,3.30
2018-09-26T07:31:43.076Z,3.13
2018-09-26T07:34:11.128Z,3.57
2018-09-26T07:36:39.285Z,3.03
2018-09-26T07:39:09.246Z,3.03
2018-09-26T07:41:37.581Z,3.07
2018-09-26T07:44:05.797Z,3.50
2018-09-26T07:46:33.844Z,2.60
2018-09-26T07:49:01.901Z,3.40
2018-09-26T07:51:30.120Z,2.87
2018-09-26T07:53:58.180Z,3.77
2018-09-26T07:56:26.224Z,3.37
2018-09-26T07:58:54.329Z,4.13
2018-09-26T08:01:22.376Z,3.70
2018-09-26T08:03:50.424Z,3.50
2018-09-26T08:06:18.471Z,4.43
2018-09-26T08:08:46.508Z,5.70
2018-09-26T08:11:14.557Z,4.23
2018-09-26T08:13:42.728Z,4.60
2018-09-26T08:16:10.882Z,3.93
2018-09-26T08:21:13.480Z,4.77
2018-09-26T08:23:41.596Z,5.07
2018-09-26T08:26:09.624Z,4.70
2018-09-26T08:28:37.674Z,4.17
2018-09-26T08:31:05.713Z,4.33
2018-09-26T08:33:33.781Z,4.00
2018-09-26T08:36:01.817Z,3.93
2018-09-26T08:38:29.868Z,4.37
2018-09-26T08:40:57.932Z,3.80
2018-09-26T08:43:26.016Z,4.10
2018-09-26T08:45:54.245Z,3.50
2018-09-26T08:48:22.286Z,3.47
2018-09-26T08:50:50.355Z,3.53
2018-09-26T08:53:18.504Z,3.60
2018-09-26T08:55:46.565Z,3.20
2018-09-26T08:58:14.603Z,3.53
2018-09-26T09:00:42.671Z,3.70
2018-09-26T09:03:10.709Z,3.80
2018-09-26T09:05:38.737Z,3.10
2018-09-26T09:08:06.768Z,3.23
2018-09-26T09:10:34.807Z,3.07
2018-09-26T09:13:02.844Z,3.00
2018-09-26T09:15:34.040Z,3.00
2018-09-26T09:18:02.068Z,2.90
2018-09-26T09:20:30.120Z,3.47
2018-09-26T09:22:58.153Z,4.07
2018-09-26T09:25:26.204Z,4.60
2018-09-26T09:27:54.270Z,3.90
2018-09-26T09:30:22.306Z,3.47
2018-09-26T09:32:50.736Z,3.10
2018-09-26T09:35:19.136Z,2.83
2018-09-26T09:37:47.203Z,3.70
2018-09-26T09:40:15.273Z,2.90
2018-09-26T09:42:43.489Z,3.10
2018-09-26T09:45:11.548Z,2.63
2018-09-26T09:47:39.937Z,3.03
2018-09-26T09:50:08.049Z,4.27
2018-09-26T09:52:36.100Z,2.90
2018-09-26T09:55:04.297Z,3.83
2018-09-26T09:57:32.374Z,3.10
2018-09-26T10:00:00.468Z,3.77
2018-09-26T10:02:28.674Z,2.97
2018-09-26T10:04:56.624Z,2.90
2018-09-26T10:07:24.668Z,2.80
2018-09-26T10:09:52.742Z,2.83
2018-09-26T10:12:20.829Z,2.70
2018-09-26T10:14:48.879Z,3.70
2018-09-26T10:17:16.950Z,3.52
2018-09-26T10:19:44.997Z,3.10
2018-09-26T10:22:13.068Z,2.80
2018-09-26T10:24:41.120Z,3.00
2018-09-26T10:27:09.195Z,2.83
2018-09-26T10:29:37.267Z,3.30
2018-09-26T10:32:05.405Z,2.53
2018-09-26T10:34:33.460Z,3.07
2018-09-26T10:37:01.527Z,2.47
2018-09-26T10:39:29.603Z,3.40
2018-09-26T10:41:57.656Z,3.70
2018-09-26T10:44:25.732Z,3.07
2018-09-26T10:46:53.829Z,3.03
2018-09-26T10:49:21.928Z,3.20
2018-09-26T10:51:50.015Z,3.02
2018-09-26T10:54:18.269Z,2.80
2018-09-26T10:59:45.236Z,3.10
2018-09-26T11:02:13.408Z,3.00
2018-09-26T11:04:41.463Z,3.77
2018-09-26T11:07:09.531Z,3.80
2018-09-26T11:09:37.625Z,3.40
2018-09-26T11:12:06.414Z,3.50
2018-09-26T11:14:34.589Z,4.67
2018-09-26T11:17:02.659Z,3.30
2018-09-26T11:19:30.730Z,3.40
2018-09-26T11:21:58.787Z,3.03
2018-09-26T11:24:26.891Z,3.87
2018-09-26T11:26:54.964Z,3.23
2018-09-26T11:29:23.085Z,3.37
2018-09-26T11:31:51.153Z,2.93
2018-09-26T11:34:19.257Z,3.60
2018-09-26T11:36:47.309Z,3.72
2018-09-26T11:39:15.420Z,3.50
2018-09-26T11:41:43.496Z,3.17
2018-09-26T11:44:11.564Z,2.83
2018-09-26T11:46:40.152Z,2.93
2018-09-26T11:49:08.260Z,3.13
2018-09-26T11:51:36.345Z,2.90
2018-09-26T11:54:04.432Z,3.47
2018-09-26T11:56:32.507Z,3.03
2018-09-26T11:59:00.610Z,3.10
2018-09-26T12:01:28.668Z,2.92
2018-09-26T12:03:56.750Z,3.00
2018-09-26T12:06:24.812Z,3.43
2018-09-26T12:08:52.894Z,3.22
2018-09-26T12:11:20.946Z,3.30
2018-09-26T12:13:49.142Z,3.43
2018-09-26T12:16:17.209Z,2.80
2018-09-26T12:18:45.267Z,3.30
2018-09-26T12:21:13.312Z,3.27
2018-09-26T12:23:41.409Z,3.50
2018-09-26T12:26:09.577Z,4.10
2018-09-26T12:28:37.689Z,3.13
2018-09-26T12:31:06.128Z,3.27
2018-09-26T12:33:34.560Z,3.80
2018-09-26T12:36:02.669Z,3.33
2018-09-26T12:38:30.868Z,3.40
2018-09-26T12:40:58.989Z,3.10
2018-09-26T12:43:27.082Z,4.20
2018-09-26T12:45:55.190Z,3.35
2018-09-26T12:48:23.364Z,2.75
2018-09-26T12:50:51.452Z,2.73
2018-09-26T12:53:19.821Z,2.90
2018-09-26T12:55:47.943Z,2.80
2018-09-26T12:58:16.119Z,2.83
2018-09-26T13:00:44.397Z,3.15
2018-09-26T13:03:12.349Z,3.00
2018-09-26T13:05:40.429Z,2.80
2018-09-26T13:08:08.659Z,3.03
2018-09-26T13:10:36.751Z,3.03
2018-09-26T13:13:05.080Z,3.10
2018-09-26T13:15:33.246Z,3.17
2018-09-26T13:18:01.818Z,2.80
2018-09-26T13:20:29.913Z,2.98
2018-09-26T13:22:58.046Z,3.70
2018-09-26T13:25:26.193Z,3.02
2018-09-26T13:27:54.397Z,2.65
2018-09-26T13:30:22.732Z,3.20
2018-09-26T13:32:50.692Z,3.10
2018-09-26T13:35:18.766Z,2.77
2018-09-26T13:37:46.853Z,3.70
2018-09-26T13:40:15.014Z,3.13
2018-09-26T13:42:43.091Z,3.20
2018-09-26T13:45:11.301Z,3.25
2018-09-26T13:47:39.463Z,2.92
2018-09-26T13:50:07.592Z,4.03
2018-09-26T13:52:35.680Z,3.12
2018-09-26T13:55:03.839Z,3.42
2018-09-26T13:57:31.909Z,3.33
2018-09-26T14:00:06.416Z,3.17
2018-09-26T14:02:34.515Z,2.87
2018-09-26T14:05:02.605Z,2.90
2018-09-26T14:07:30.674Z,3.00
2018-09-26T14:09:58.771Z,2.90
2018-09-26T14:12:26.975Z,2.80
2018-09-26T14:14:55.038Z,2.92
2018-09-26T14:17:23.197Z,3.10
2018-09-26T14:20:08.013Z,2.50
2018-09-26T14:22:36.438Z,2.70
2018-09-26T14:25:04.769Z,2.75
2018-09-26T14:27:33.100Z,2.90
2018-09-26T14:30:01.459Z,2.47
2018-09-26T14:32:29.755Z,2.80
2018-09-26T14:34:58.131Z,2.72
2018-09-26T14:37:26.464Z,2.62
2018-09-26T14:39:54.748Z,2.50
2018-09-26T14:42:23.088Z,3.33
2018-09-26T14:44:51.396Z,2.70
2018-09-26T14:47:19.823Z,2.80
2018-09-26T14:49:50.948Z,3.12
2018-09-26T14:52:19.442Z,3.20
2018-09-26T14:54:47.742Z,3.40
2018-09-26T14:57:16.056Z,3.30
2018-09-26T14:59:44.344Z,2.80
2018-09-26T15:02:12.668Z,2.60
2018-09-26T15:04:41.069Z,2.60
2018-09-26T15:07:09.380Z,2.45
2018-09-26T15:09:37.649Z,2.95
2018-09-26T15:12:06.003Z,2.80
2018-09-26T15:14:34.162Z,2.77
2018-09-26T15:17:02.421Z,2.50
2018-09-26T15:19:30.693Z,2.95
2018-09-26T15:21:59.024Z,2.47
2018-09-26T15:24:27.353Z,2.55
2018-09-26T15:26:55.472Z,3.10
2018-09-26T15:29:23.706Z,3.33
2018-09-26T15:31:51.931Z,3.00
2018-09-26T15:34:20.224Z,2.90
2018-09-26T15:36:48.645Z,2.90
2018-09-26T15:39:16.872Z,3.02
2018-09-26T15:41:45.231Z,2.50
2018-09-26T15:44:13.588Z,2.70
2018-09-26T15:46:41.876Z,3.40
2018-09-26T15:49:10.238Z,3.07
2018-09-26T15:51:38.568Z,3.00
2018-09-26T15:54:06.861Z,3.30
2018-09-26T15:56:35.094Z,2.87
2018-09-26T15:59:03.380Z,2.70
2018-09-26T16:01:31.650Z,3.50
2018-09-26T16:04:16.564Z,3.93
2018-09-26T16:06:44.637Z,2.72
2018-09-26T16:09:12.726Z,3.17
2018-09-26T16:11:40.980Z,4.50
2018-09-26T16:14:09.173Z,3.45
2018-09-26T16:16:37.278Z,3.12
2018-09-26T16:19:05.431Z,3.52
2018-09-26T16:21:33.695Z,3.77
2018-09-26T16:24:01.774Z,2.98
2018-09-26T16:26:29.871Z,3.00
2018-09-26T16:28:57.972Z,2.57
2018-09-26T16:31:26.922Z,2.40
2018-09-26T16:33:55.468Z,2.98
2018-09-26T16:36:23.903Z,2.83
2018-09-26T16:38:51.936Z,2.63
2018-09-26T16:41:20.000Z,3.20
2018-09-26T16:43:48.047Z,3.42
2018-09-26T16:46:16.266Z,3.03
2018-09-26T16:48:44.583Z,3.77
2018-09-26T16:51:12.658Z,3.67
2018-09-26T16:53:40.775Z,3.47
2018-09-26T16:56:08.815Z,3.13
2018-09-26T16:58:36.956Z,3.10
2018-09-26T17:01:05.119Z,4.10
2018-09-26T17:03:33.204Z,3.27
2018-09-26T17:06:01.309Z,3.07
2018-09-26T17:08:29.392Z,2.70
2018-09-26T17:10:57.485Z,3.40
2018-09-26T17:13:25.643Z,2.60
2018-09-26T17:15:53.721Z,2.83
2018-09-26T17:18:21.865Z,3.00
2018-09-26T17:20:49.869Z,3.20
2018-09-26T17:23:17.968Z,3.23
2018-09-26T17:25:46.050Z,4.20
2018-09-26T17:28:14.164Z,3.70
2018-09-26T17:30:42.242Z,3.63
2018-09-26T17:33:10.328Z,3.27
2018-09-26T17:35:38.497Z,2.97
2018-09-26T17:38:06.589Z,3.30
2018-09-26T17:40:34.732Z,3.07
2018-09-26T17:43:02.928Z,2.87
2018-09-26T17:45:31.386Z,4.30
2018-09-26T17:47:59.432Z,3.50
2018-09-26T17:50:27.496Z,3.70
2018-09-26T17:52:55.639Z,4.17
2018-09-26T17:55:23.710Z,3.57
2018-09-26T17:57:51.875Z,4.10
2018-09-26T18:00:20.052Z,3.70
2018-09-26T18:02:48.113Z,3.40
2018-09-26T18:05:16.270Z,3.70
2018-09-26T18:07:44.341Z,3.30
2018-09-26T18:10:12.495Z,3.57
2018-09-26T18:12:41.077Z,4.23
2018-09-26T18:15:09.176Z,3.57
2018-09-26T18:17:39.924Z,4.30
2018-09-26T18:20:10.909Z,3.80
2018-09-26T18:22:40.019Z,3.03
2018-09-26T18:25:09.950Z,3.90
2018-09-26T18:27:40.977Z,3.37
2018-09-26T18:30:10.248Z,3.73
2018-09-26T18:32:40.780Z,4.00
2018-09-26T18:35:09.789Z,4.40
2018-09-26T18:37:42.309Z,4.10
2018-09-26T18:40:13.448Z,4.13
2018-09-26T18:42:45.547Z,3.83
2018-09-26T18:45:15.646Z,3.87
2018-09-26T18:47:43.752Z,3.97
2018-09-26T18:50:15.351Z,4.07
2018-09-26T18:52:44.455Z,3.60
2018-09-26T18:55:17.380Z,4.23
2018-09-26T18:57:47.881Z,4.83
2018-09-26T19:00:18.409Z,3.73
2018-09-26T19:02:46.611Z,4.07
2018-09-26T19:05:14.746Z,3.90
2018-09-26T19:07:42.821Z,3.50
2018-09-26T19:10:10.981Z,4.43
2018-09-26T19:12:39.102Z,3.97
2018-09-26T19:15:07.338Z,4.17
2018-09-26T19:17:35.378Z,4.57
2018-09-26T19:20:03.437Z,4.27
2018-09-26T19:22:31.508Z,4.07
2018-09-26T19:24:59.610Z,4.57
2018-09-26T19:27:27.793Z,4.17
2018-09-26T19:29:56.133Z,3.80
2018-09-26T19:32:24.195Z,4.20
2018-09-26T19:34:52.299Z,3.80
2018-09-26T19:37:20.373Z,4.67
2018-09-26T19:39:48.497Z,4.00
2018-09-26T19:42:16.711Z,4.20
2018-09-26T19:44:44.958Z,4.53
2018-09-26T19:47:13.467Z,4.00
2018-09-26T19:49:41.709Z,4.77
2018-09-26T19:52:09.941Z,5.23
2018-09-26T19:54:37.945Z,5.20
2018-09-26T19:57:06.036Z,4.90
2018-09-26T19:59:34.220Z,4.60
2018-09-26T20:02:02.356Z,4.50
2018-09-26T20:04:30.557Z,4.77
2018-09-26T20:06:58.667Z,4.53
2018-09-26T20:09:26.786Z,5.07
2018-09-26T20:11:54.884Z,4.30
2018-09-26T20:14:23.004Z,4.40
2018-09-26T20:16:51.207Z,4.87
2018-09-26T20:19:19.350Z,4.40
2018-09-26T20:21:47.407Z,4.37
2018-09-26T20:24:15.618Z,4.37
2018-09-26T20:26:43.701Z,4.47
2018-09-26T20:29:11.764Z,4.13
2018-09-26T20:31:39.853Z,3.97
2018-09-26T20:34:07.996Z,4.20
2018-09-26T20:36:36.178Z,4.20
2018-09-26T20:39:06.132Z,4.23
2018-09-26T20:41:34.305Z,3.93
2018-09-26T20:44:02.482Z,4.70
2018-09-26T20:46:30.537Z,4.17
2018-09-26T20:48:58.667Z,5.13
2018-09-26T20:51:26.768Z,4.70
2018-09-26T20:53:54.870Z,4.77
2018-09-26T20:56:23.028Z,4.27
2018-09-26T20:58:51.163Z,5.07
2018-09-26T21:01:19.254Z,4.80
2018-09-26T21:03:47.373Z,4.23
2018-09-26T21:06:15.472Z,4.10
2018-09-26T21:08:43.556Z,4.53
2018-09-26T21:11:11.641Z,4.10
2018-09-26T21:13:39.716Z,4.60
2018-09-26T21:16:07.828Z,3.93
2018-09-26T21:18:35.886Z,4.60
2018-09-26T21:21:03.981Z,4.47
2018-09-26T21:23:32.039Z,4.53
2018-09-26T21:26:00.245Z,4.90
2018-09-26T21:28:28.289Z,5.03
2018-09-26T21:30:56.366Z,5.27
2018-09-26T21:33:24.444Z,4.97
2018-09-26T21:35:52.532Z,4.40
2018-09-26T21:38:20.599Z,4.20
2018-09-26T21:40:48.661Z,4.20
2018-09-26T21:43:16.716Z,4.53
2018-09-26T21:45:44.792Z,4.37
2018-09-26T21:48:12.867Z,4.13
2018-09-26T21:50:40.930Z,4.97
2018-09-26T21:53:08.982Z,4.60
2018-09-26T21:55:37.052Z,5.07
2018-09-26T21:58:05.119Z,4.70
2018-09-26T22:00:33.208Z,4.60
2018-09-26T22:03:01.287Z,4.40
2018-09-26T22:05:29.372Z,4.33
2018-09-26T22:07:57.436Z,4.40
2018-09-26T22:10:25.517Z,5.20
2018-09-26T22:12:53.596Z,4.33
2018-09-26T22:15:24.321Z,4.70
2018-09-26T22:17:53.606Z,5.83
2018-09-26T22:20:21.680Z,5.60
2018-09-26T22:22:50.211Z,5.20
2018-09-26T22:25:18.504Z,5.00
2018-09-26T22:27:47.017Z,5.03
2018-09-26T22:30:15.073Z,4.60
2018-09-26T22:32:43.188Z,4.93
2018-09-26T22:35:17.913Z,5.73
2018-09-26T22:37:45.981Z,4.87
2018-09-26T22:40:14.045Z,5.37
2018-09-26T22:42:42.117Z,5.37
2018-09-26T22:45:10.194Z,5.13
2018-09-26T22:47:38.265Z,4.87
2018-09-26T22:50:06.350Z,5.07
2018-09-26T22:52:34.421Z,5.63
2018-09-26T22:55:02.579Z,5.10
2018-09-26T22:57:30.664Z,4.87
2018-09-26T22:59:58.820Z,4.67
2018-09-26T23:02:26.945Z,5.20
2018-09-26T23:04:54.997Z,4.93
2018-09-26T23:07:23.060Z,5.47
2018-09-26T23:09:51.145Z,5.10
2018-09-26T23:12:19.236Z,5.57
2018-09-26T23:14:47.304Z,6.00
2018-09-26T23:17:15.372Z,5.30
2018-09-26T23:19:43.441Z,5.77
2018-09-26T23:22:11.516Z,6.13
2018-09-26T23:24:39.608Z,5.40
2018-09-26T23:27:07.703Z,5.73
2018-09-26T23:29:35.980Z,5.60
2018-09-26T23:32:04.045Z,6.10
2018-09-26T23:34:32.102Z,5.30
2018-09-26T23:37:00.185Z,5.40
2018-09-26T23:39:28.273Z,4.70
2018-09-26T23:41:56.658Z,5.60
2018-09-26T23:44:24.772Z,5.90
2018-09-26T23:46:52.845Z,5.77
2018-09-26T23:49:20.938Z,5.50
2018-09-26T23:51:49.010Z,5.27
2018-09-26T23:54:17.529Z,6.37
2018-09-26T23:56:45.700Z,5.43
2018-09-26T23:59:13.803Z,6.10
